Time;durP1;ratioP1;P1;durP2;ratioP2;P2;SDS_P1;SDS_P2;PMS_P1;PMS_P2;Temp;Humidity;BMP_temperature;BMP_pressure;BME280_temperature;BME280_humidity;BME280_pressure;Samples;Min_cycle;Max_cycle;Signal;HPM_P1;HPM_P2
2023/09/22 00:03:30;;;;;;;8.70;3.00;;;;;;;;;;103690;1291;545333;-76
2023/09/22 00:07:07;;;;;;;7.30;2.80;;;;;;;;;;104603;1286;545048;-76
2023/09/22 00:10:45;;;;;;;12.00;3.00;;;;;;;;;;103715;1291;545980;-75
2023/09/22 00:14:22;;;;;;;6.80;2.60;;;;;;;;;;103800;1292;544719;-76
2023/09/22 00:17:59;;;;;;;8.20;3.10;;;;;;;;;;104415;1286;545513;-76
2023/09/22 00:21:37;;;;;;;8.90;2.60;;;;;;;;;;103630;1295;544866;-76
2023/09/22 00:25:22;;;;;;;7.60;2.40;;;;;;;;;;104029;1285;548092;-75
2023/09/22 00:28:52;;;;;;;8.20;2.60;;;;;;;;;;103799;1289;545973;-76
2023/09/22 00:32:30;;;;;;;9.30;2.80;;;;;;;;;;103911;1290;545688;-75
2023/09/22 00:36:07;;;;;;;11.60;3.20;;;;;;;;;;103939;1292;544971;-75
2023/09/22 00:39:44;;;;;;;8.00;2.80;;;;;;;;;;103799;1289;545264;-76
2023/09/22 00:43:22;;;;;;;8.70;2.80;;;;;;;;;;103778;1291;544978;-75
2023/09/22 00:46:59;;;;;;;11.50;2.90;;;;;;;;;;103832;1289;545040;-75
2023/09/22 00:50:37;;;;;;;7.40;2.80;;;;;;;;;;104047;1289;544754;-74
2023/09/22 00:54:14;;;;;;;8.40;2.70;;;;;;;;;;103871;1289;545371;-75
2023/09/22 00:57:52;;;;;;;8.80;3.00;;;;;;;;;;103785;1291;545284;-76
2023/09/22 01:01:28;;;;;;;9.50;2.90;;;;;;;;;;103790;1289;544886;-75
2023/09/22 01:05:08;;;;;;;9.50;2.40;;;;;;;;;;103976;1288;545618;-75
2023/09/22 01:08:44;;;;;;;9.40;2.80;;;;;;;;;;103905;1302;545355;-75
2023/09/22 01:12:21;;;;;;;8.10;2.90;;;;;;;;;;103733;1295;544874;-75
2023/09/22 01:15:59;;;;;;;8.10;2.90;;;;;;;;;;104047;1290;544985;-75
2023/09/22 01:19:36;;;;;;;9.00;2.80;;;;;;;;;;103762;1292;545139;-77
2023/09/22 01:23:14;;;;;;;10.60;2.90;;;;;;;;;;104035;1289;544590;-75
2023/09/22 01:26:51;;;;;;;9.40;2.80;;;;;;;;;;103787;1289;545849;-78
2023/09/22 01:30:29;;;;;;;10.00;2.90;;;;;;;;;;103705;1295;545673;-77
2023/09/22 01:34:08;;;;;;;8.10;2.80;;;;;;;;;;103723;1292;544836;-76
2023/09/22 01:37:47;;;;;;;10.60;3.10;;;;;;;;;;103743;1294;544908;-74
2023/09/22 01:41:21;;;;;;;8.80;2.90;;;;;;;;;;103778;1292;545893;-75
2023/09/22 01:44:58;;;;;;;7.80;2.60;;;;;;;;;;104009;1291;544717;-75
2023/09/22 01:48:36;;;;;;;7.80;2.20;;;;;;;;;;103786;1294;545736;-75
2023/09/22 01:52:13;;;;;;;10.20;2.90;;;;;;;;;;103919;1292;546051;-76
2023/09/22 01:55:51;;;;;;;9.30;3.10;;;;;;;;;;103778;1289;545461;-76
2023/09/22 01:59:28;;;;;;;9.00;2.90;;;;;;;;;;103730;1291;545366;-75
2023/09/22 02:03:06;;;;;;;9.40;2.70;;;;;;;;;;104210;1292;545434;-75
2023/09/22 02:06:44;;;;;;;7.60;2.60;;;;;;;;;;104054;1292;544943;-76
2023/09/22 02:10:21;;;;;;;9.70;2.60;;;;;;;;;;104065;1289;544895;-75
2023/09/22 02:13:54;;;;;;;9.00;2.50;;;;;;;;;;104722;1286;545093;-75
2023/09/22 02:17:37;;;;;;;9.60;2.70;;;;;;;;;;103776;1289;545039;-77
2023/09/22 02:21:17;;;;;;;8.80;2.90;;;;;;;;;;103778;1291;544812;-76
2023/09/22 02:24:52;;;;;;;9.00;2.60;;;;;;;;;;103790;1292;545557;-76
2023/09/22 02:28:29;;;;;;;10.00;2.70;;;;;;;;;;103788;1289;546270;-76
2023/09/22 02:32:07;;;;;;;8.60;2.70;;;;;;;;;;104044;1290;545638;-75
2023/09/22 02:35:44;;;;;;;7.60;2.50;;;;;;;;;;103779;1290;544959;-75
2023/09/22 02:39:22;;;;;;;8.80;2.60;;;;;;;;;;103740;1289;544877;-75
2023/09/22 02:42:59;;;;;;;6.50;2.30;;;;;;;;;;103789;1292;544932;-75
2023/09/22 02:46:37;;;;;;;8.10;2.50;;;;;;;;;;103989;1289;544865;-75
2023/09/22 02:50:17;;;;;;;8.50;2.90;;;;;;;;;;103734;1290;545620;-75
2023/09/22 02:53:55;;;;;;;9.70;2.90;;;;;;;;;;103649;1291;544772;-75
2023/09/22 02:57:29;;;;;;;10.50;3.00;;;;;;;;;;104333;1288;546045;-75
2023/09/22 03:01:08;;;;;;;9.20;2.80;;;;;;;;;;103732;1290;544775;-75
2023/09/22 03:04:44;;;;;;;6.50;2.70;;;;;;;;;;104082;1288;545582;-75
2023/09/22 03:08:21;;;;;;;9.10;2.90;;;;;;;;;;104490;1285;544789;-75
2023/09/22 03:11:59;;;;;;;8.90;2.80;;;;;;;;;;103794;1290;545056;-75
2023/09/22 03:15:36;;;;;;;9.40;2.90;;;;;;;;;;103766;1290;545604;-76
2023/09/22 03:19:13;;;;;;;8.60;3.00;;;;;;;;;;103855;1292;544995;-77
2023/09/22 03:22:51;;;;;;;9.50;2.90;;;;;;;;;;103838;1292;545164;-76
2023/09/22 03:26:29;;;;;;;9.20;2.60;;;;;;;;;;103768;1291;544749;-76
2023/09/22 03:30:07;;;;;;;7.90;2.50;;;;;;;;;;104340;1286;545014;-75
2023/09/22 03:33:46;;;;;;;8.00;2.90;;;;;;;;;;104342;1282;544737;-76
2023/09/22 03:37:22;;;;;;;9.70;2.70;;;;;;;;;;103768;1292;545257;-75
2023/09/22 03:41:00;;;;;;;7.20;2.40;;;;;;;;;;103773;1290;545161;-76
2023/09/22 03:44:36;;;;;;;10.40;2.90;;;;;;;;;;103752;1289;546088;-76
2023/09/22 03:48:20;;;;;;;9.60;2.90;;;;;;;;;;103716;1290;546755;-77
2023/09/22 03:51:50;;;;;;;10.20;3.30;;;;;;;;;;103770;1289;546064;-76
2023/09/22 03:55:29;;;;;;;8.60;3.00;;;;;;;;;;103958;1288;544815;-75
2023/09/22 03:59:07;;;;;;;8.80;2.60;;;;;;;;;;103664;1291;544955;-75
2023/09/22 04:02:44;;;;;;;8.90;2.70;;;;;;;;;;103818;1290;544960;-75
2023/09/22 04:06:21;;;;;;;11.00;3.10;;;;;;;;;;103839;1291;545439;-76
2023/09/22 04:09:58;;;;;;;13.30;3.80;;;;;;;;;;103752;1294;544843;-76
2023/09/22 04:13:36;;;;;;;6.90;2.90;;;;;;;;;;103742;1291;545063;-76
2023/09/22 04:17:13;;;;;;;9.30;2.70;;;;;;;;;;104576;1282;544955;-75
2023/09/22 04:20:57;;;;;;;12.10;3.50;;;;;;;;;;103654;1292;547975;-76
2023/09/22 04:24:34;;;;;;;13.20;3.80;;;;;;;;;;103762;1291;544791;-76
2023/09/22 04:28:08;;;;;;;8.60;3.20;;;;;;;;;;103792;1291;544934;-77
2023/09/22 04:31:43;;;;;;;9.80;3.20;;;;;;;;;;103787;1299;545126;-77
2023/09/22 04:35:21;;;;;;;10.40;3.40;;;;;;;;;;103744;1289;544914;-76
2023/09/22 04:38:58;;;;;;;11.90;3.40;;;;;;;;;;103998;1291;544789;-75
2023/09/22 04:42:31;;;;;;;12.20;3.50;;;;;;;;;;103915;1292;544722;-76
2023/09/22 04:46:19;;;;;;;11.10;3.20;;;;;;;;;;103822;1289;544931;-76
2023/09/22 04:49:52;;;;;;;11.40;3.30;;;;;;;;;;103754;1291;544793;-76
2023/09/22 04:53:29;;;;;;;9.20;3.00;;;;;;;;;;103764;1292;546146;-76
2023/09/22 04:57:12;;;;;;;11.50;3.60;;;;;;;;;;103398;1293;547971;-76
2023/09/22 05:00:53;;;;;;;12.50;3.40;;;;;;;;;;103622;1292;548554;-76
2023/09/22 05:14:43;;;;;;;11.90;3.60;;;;;;;;;;104792;1285;550573;-75
2023/09/22 05:17:35;;;;;;;11.10;3.10;;;;;;;;;;103849;1289;545535;-76
2023/09/22 05:21:13;;;;;;;9.20;3.60;;;;;;;;;;103765;1290;545598;-75
2023/09/22 05:35:13;;;;;;;14.80;4.20;;;;;;;;;;104535;1285;550218;-74
2023/09/22 05:38:05;;;;;;;11.80;3.50;;;;;;;;;;104041;1289;544941;-76
2023/09/22 05:41:46;;;;;;;16.30;3.80;;;;;;;;;;103757;1292;545953;-76
2023/09/22 05:45:26;;;;;;;17.00;4.70;;;;;;;;;;103408;1295;547991;-78
2023/09/22 05:48:57;;;;;;;11.70;3.60;;;;;;;;;;103894;1289;544759;-76
2023/09/22 05:52:36;;;;;;;14.20;3.20;;;;;;;;;;103769;1292;544910;-75
2023/09/22 05:56:12;;;;;;;11.70;3.60;;;;;;;;;;103754;1291;544873;-76
2023/09/22 05:59:46;;;;;;;13.30;4.10;;;;;;;;;;104371;1288;545055;-75
2023/09/22 06:03:29;;;;;;;10.50;3.70;;;;;;;;;;104108;1289;545885;-76
2023/09/22 06:07:12;;;;;;;11.10;3.90;;;;;;;;;;104026;1292;545024;-76
2023/09/22 06:10:43;;;;;;;12.20;3.20;;;;;;;;;;103834;1288;544825;-76
2023/09/22 06:14:22;;;;;;;12.90;3.80;;;;;;;;;;104227;1287;544984;-75
2023/09/22 06:17:58;;;;;;;17.10;4.40;;;;;;;;;;103792;1289;545516;-76
2023/09/22 06:31:58;;;;;;;13.50;4.00;;;;;;;;;;104758;1286;550027;-76
2023/09/22 06:34:53;;;;;;;17.10;4.10;;;;;;;;;;103770;1291;544895;-76
2023/09/22 06:48:51;;;;;;;51.40;24.80;;;;;;;;;;104729;1280;549757;-76
2023/09/22 06:51:43;;;;;;;66.10;32.50;;;;;;;;;;103797;1292;545009;-75
2023/09/22 06:55:26;;;;;;;94.10;38.00;;;;;;;;;;103725;1289;545531;-76
2023/09/22 06:58:59;;;;;;;107.60;45.10;;;;;;;;;;104358;1283;545155;-76
2023/09/22 07:02:39;;;;;;;83.20;35.40;;;;;;;;;;104096;1291;546236;-76
2023/09/22 07:06:16;;;;;;;60.80;25.00;;;;;;;;;;103760;1294;544907;-75
2023/09/22 07:09:51;;;;;;;48.40;20.90;;;;;;;;;;103715;1295;545380;-76
2023/09/22 07:13:29;;;;;;;42.70;18.40;;;;;;;;;;104166;1289;544902;-76
2023/09/22 07:17:06;;;;;;;40.20;17.50;;;;;;;;;;103738;1291;545265;-76
2023/09/22 07:20:46;;;;;;;45.20;18.80;;;;;;;;;;104053;1292;544971;-76
2023/09/22 07:24:21;;;;;;;17.90;6.10;;;;;;;;;;103773;1301;544804;-77
2023/09/22 07:27:57;;;;;;;15.30;6.70;;;;;;;;;;103784;1290;544960;-76
2023/09/22 07:31:37;;;;;;;14.20;4.10;;;;;;;;;;103993;1292;545634;-76
2023/09/22 07:35:13;;;;;;;10.50;4.00;;;;;;;;;;103720;1292;544769;-76
2023/09/22 07:38:50;;;;;;;9.00;3.20;;;;;;;;;;103870;1289;545242;-76
2023/09/22 07:42:31;;;;;;;11.50;4.70;;;;;;;;;;103717;1292;544983;-76
2023/09/22 07:46:06;;;;;;;16.70;4.70;;;;;;;;;;103789;1294;544967;-76
2023/09/22 07:49:43;;;;;;;12.50;4.40;;;;;;;;;;103740;1290;544827;-76
2023/09/22 07:53:20;;;;;;;11.60;3.80;;;;;;;;;;103768;1289;544977;-76
2023/09/22 07:56:57;;;;;;;15.90;4.10;;;;;;;;;;103842;1299;545645;-76
2023/09/22 08:00:38;;;;;;;10.60;3.00;;;;;;;;;;103763;1291;544734;-76
2023/09/22 08:04:13;;;;;;;9.10;3.20;;;;;;;;;;103803;1289;545509;-76
2023/09/22 08:07:50;;;;;;;10.70;3.40;;;;;;;;;;104050;1290;544991;-74
2023/09/22 08:11:27;;;;;;;9.80;3.30;;;;;;;;;;103793;1292;544865;-76
2023/09/22 08:15:06;;;;;;;8.70;3.40;;;;;;;;;;103725;1291;544969;-76
2023/09/22 08:18:42;;;;;;;7.90;3.30;;;;;;;;;;103783;1289;544848;-76
2023/09/22 08:22:19;;;;;;;8.00;3.10;;;;;;;;;;103772;1292;546192;-75
2023/09/22 08:25:57;;;;;;;10.50;3.90;;;;;;;;;;103830;1291;544833;-76
2023/09/22 08:29:35;;;;;;;8.70;4.50;;;;;;;;;;103727;1289;545441;-75
2023/09/22 08:33:12;;;;;;;9.00;3.00;;;;;;;;;;103783;1289;545641;-76
2023/09/22 08:36:50;;;;;;;8.30;3.00;;;;;;;;;;103747;1289;545550;-75
2023/09/22 08:40:27;;;;;;;9.30;3.20;;;;;;;;;;104650;1282;544754;-76
2023/09/22 08:44:05;;;;;;;7.00;3.10;;;;;;;;;;103759;1291;544742;-75
2023/09/22 08:47:40;;;;;;;9.30;3.30;;;;;;;;;;103925;1289;545136;-75
2023/09/22 08:51:24;;;;;;;7.80;3.00;;;;;;;;;;103707;1290;544795;-76
2023/09/22 08:55:04;;;;;;;9.40;3.00;;;;;;;;;;103832;1289;544881;-76
2023/09/22 08:58:38;;;;;;;9.60;3.00;;;;;;;;;;103748;1292;545531;-76
2023/09/22 09:02:16;;;;;;;8.30;3.10;;;;;;;;;;103730;1292;545924;-76
2023/09/22 09:06:04;;;;;;;8.40;4.30;;;;;;;;;;103744;1289;544945;-76
2023/09/22 09:09:41;;;;;;;9.80;3.40;;;;;;;;;;103763;1292;544708;-76
2023/09/22 09:13:12;;;;;;;10.80;3.60;;;;;;;;;;103804;1292;545445;-76
2023/09/22 09:16:46;;;;;;;14.40;5.50;;;;;;;;;;103819;1291;545418;-76
2023/09/22 09:20:33;;;;;;;11.20;4.50;;;;;;;;;;103626;1288;547954;-76
2023/09/22 09:24:00;;;;;;;8.30;3.20;;;;;;;;;;103785;1295;544810;-76
2023/09/22 09:27:44;;;;;;;8.90;3.30;;;;;;;;;;103503;1291;547996;-76
2023/09/22 09:31:17;;;;;;;8.40;3.10;;;;;;;;;;103830;1291;545606;-76
2023/09/22 09:34:59;;;;;;;12.70;3.10;;;;;;;;;;103662;1291;548559;-76
2023/09/22 09:38:40;;;;;;;10.50;3.00;;;;;;;;;;104079;1292;544728;-76
2023/09/22 09:42:04;;;;;;;9.00;2.90;;;;;;;;;;103866;1289;545404;-76
2023/09/22 09:45:57;;;;;;;11.90;3.30;;;;;;;;;;104005;1290;545517;-76
2023/09/22 09:49:25;;;;;;;9.60;3.80;;;;;;;;;;103761;1291;544992;-76
2023/09/22 09:53:06;;;;;;;12.40;3.70;;;;;;;;;;103713;1290;544703;-75
2023/09/22 09:56:41;;;;;;;10.60;3.70;;;;;;;;;;103617;1291;545659;-75
2023/09/22 10:00:19;;;;;;;13.20;4.20;;;;;;;;;;103851;1289;545293;-75
2023/09/22 10:03:54;;;;;;;12.90;4.50;;;;;;;;;;103711;1291;546112;-76
2023/09/22 10:07:32;;;;;;;12.00;4.10;;;;;;;;;;103782;1289;545307;-75
2023/09/22 10:11:11;;;;;;;17.80;4.40;;;;;;;;;;103840;1288;544937;-76
2023/09/22 10:14:46;;;;;;;17.20;5.10;;;;;;;;;;103854;1289;544773;-75
2023/09/22 10:18:44;;;;;;;44.60;28.60;;;;;;;;;;103755;1289;544926;-75
2023/09/22 10:22:11;;;;;;;14.50;6.90;;;;;;;;;;103719;1291;544815;-76
2023/09/22 10:25:39;;;;;;;15.40;6.60;;;;;;;;;;103925;1291;545578;-76
2023/09/22 10:29:34;;;;;;;14.30;4.30;;;;;;;;;;103822;1289;544769;-76
2023/09/22 10:33:14;;;;;;;12.10;5.00;;;;;;;;;;103754;1292;545506;-76
2023/09/22 10:36:47;;;;;;;15.50;4.90;;;;;;;;;;103955;1289;544803;-76
2023/09/22 10:40:09;;;;;;;19.40;4.30;;;;;;;;;;103731;1289;544623;-76
2023/09/22 10:43:56;;;;;;;10.80;4.30;;;;;;;;;;104051;1291;545203;-76
2023/09/22 10:47:24;;;;;;;13.50;5.00;;;;;;;;;;103872;1288;544921;-76
2023/09/22 10:51:02;;;;;;;13.00;4.60;;;;;;;;;;103732;1292;544783;-76
2023/09/22 10:54:42;;;;;;;10.90;4.50;;;;;;;;;;103741;1291;545121;-76
2023/09/22 10:58:18;;;;;;;13.30;4.30;;;;;;;;;;103711;1294;544881;-76
2023/09/22 11:01:55;;;;;;;9.70;3.20;;;;;;;;;;103766;1291;545768;-76
2023/09/22 11:05:31;;;;;;;8.30;2.40;;;;;;;;;;103845;1292;545111;-76
2023/09/22 11:09:11;;;;;;;6.60;2.40;;;;;;;;;;103691;1291;544923;-75
2023/09/22 11:12:47;;;;;;;8.60;2.70;;;;;;;;;;103892;1289;544977;-76
2023/09/22 11:16:20;;;;;;;13.00;3.50;;;;;;;;;;103877;1289;545064;-75
2023/09/22 11:20:12;;;;;;;9.90;3.20;;;;;;;;;;103681;1295;544794;-75
2023/09/22 11:23:41;;;;;;;11.90;3.00;;;;;;;;;;103758;1292;545865;-76
2023/09/22 11:27:18;;;;;;;7.60;3.00;;;;;;;;;;103707;1301;544798;-76
2023/09/22 11:30:52;;;;;;;9.20;3.70;;;;;;;;;;103837;1289;545081;-75
2023/09/22 11:34:44;;;;;;;10.50;3.80;;;;;;;;;;103801;1292;545909;-75
2023/09/22 11:38:23;;;;;;;11.80;6.00;;;;;;;;;;104589;1282;544747;-76
2023/09/22 11:41:50;;;;;;;11.20;3.80;;;;;;;;;;103709;1291;545871;-75
2023/09/22 11:45:26;;;;;;;7.50;2.90;;;;;;;;;;104238;1289;545025;-76
2023/09/22 11:49:05;;;;;;;7.50;2.90;;;;;;;;;;103745;1291;544775;-75
2023/09/22 11:52:42;;;;;;;8.50;2.90;;;;;;;;;;103731;1291;545049;-76
2023/09/22 11:56:19;;;;;;;10.50;3.20;;;;;;;;;;105871;1289;544864;-76
2023/09/22 11:59:59;;;;;;;7.10;2.30;;;;;;;;;;104057;1288;545007;-74
2023/09/22 12:03:58;;;;;;;6.30;2.00;;;;;;;;;;103906;1292;547960;-76
2023/09/22 12:07:16;;;;;;;6.60;2.20;;;;;;;;;;103971;1289;544860;-76
2023/09/22 12:11:00;;;;;;;4.70;1.70;;;;;;;;;;103696;1291;544802;-76
2023/09/22 12:14:38;;;;;;;5.60;1.40;;;;;;;;;;103684;1292;548820;-76
2023/09/22 12:18:13;;;;;;;5.10;1.40;;;;;;;;;;103735;1295;544873;-75
2023/09/22 12:21:51;;;;;;;6.60;1.60;;;;;;;;;;103733;1292;545875;-76
2023/09/22 12:25:28;;;;;;;8.70;2.30;;;;;;;;;;104095;1285;544816;-75
2023/09/22 12:29:05;;;;;;;5.70;1.50;;;;;;;;;;103671;1292;545888;-77
2023/09/22 12:32:43;;;;;;;4.90;1.30;;;;;;;;;;103756;1301;545100;-75
2023/09/22 12:36:20;;;;;;;3.90;1.20;;;;;;;;;;103757;1292;545012;-76
2023/09/22 12:50:20;;;;;;;5.20;1.10;;;;;;;;;;104709;1293;550064;-75
2023/09/22 12:53:13;;;;;;;4.80;1.20;;;;;;;;;;103712;1290;545754;-75
2023/09/22 12:56:51;;;;;;;5.20;1.30;;;;;;;;;;103735;1289;544797;-75
2023/09/22 13:00:27;;;;;;;2.80;1.10;;;;;;;;;;103823;1290;546189;-75
2023/09/22 13:04:06;;;;;;;4.80;1.40;;;;;;;;;;103620;1296;545058;-74
2023/09/22 13:07:43;;;;;;;6.90;1.50;;;;;;;;;;103722;1289;545015;-74
2023/09/22 13:11:20;;;;;;;4.20;1.20;;;;;;;;;;103924;1291;545102;-75
2023/09/22 13:14:58;;;;;;;7.60;2.10;;;;;;;;;;103809;1289;544978;-75
2023/09/22 13:18:35;;;;;;;5.50;1.70;;;;;;;;;;103646;1291;544764;-74
2023/09/22 13:22:14;;;;;;;7.80;2.80;;;;;;;;;;103806;1290;545406;-74
2023/09/22 13:25:50;;;;;;;8.60;3.50;;;;;;;;;;104725;1283;544772;-75
2023/09/22 13:29:28;;;;;;;5.30;1.90;;;;;;;;;;103799;1289;545021;-74
2023/09/22 13:33:06;;;;;;;4.80;1.60;;;;;;;;;;103769;1292;544722;-74
2023/09/22 13:36:42;;;;;;;4.80;1.30;;;;;;;;;;103892;1292;544772;-73
2023/09/22 13:40:21;;;;;;;3.80;1.20;;;;;;;;;;103663;1295;545027;-73
2023/09/22 13:43:58;;;;;;;4.30;1.20;;;;;;;;;;103810;1289;544797;-74
2023/09/22 13:47:34;;;;;;;2.30;0.80;;;;;;;;;;103692;1295;544819;-74
2023/09/22 13:51:13;;;;;;;4.00;1.30;;;;;;;;;;104079;1288;544910;-74
2023/09/22 13:54:50;;;;;;;2.00;1.10;;;;;;;;;;103875;1289;544950;-74
2023/09/22 13:58:28;;;;;;;4.10;1.10;;;;;;;;;;104036;1292;544783;-75
2023/09/22 14:02:06;;;;;;;3.20;1.20;;;;;;;;;;103651;1291;544970;-74
2023/09/22 14:05:42;;;;;;;3.40;1.20;;;;;;;;;;103693;1290;544903;-74
2023/09/22 14:09:41;;;;;;;4.30;1.30;;;;;;;;;;103595;1295;547793;-75
2023/09/22 14:12:57;;;;;;;2.50;1.10;;;;;;;;;;103683;1289;545116;-74
2023/09/22 14:16:35;;;;;;;3.70;1.40;;;;;;;;;;103743;1293;545760;-73
2023/09/22 14:20:35;;;;;;;4.10;1.60;;;;;;;;;;103676;1289;548126;-75
2023/09/22 14:24:05;;;;;;;2.60;1.30;;;;;;;;;;103926;1291;547938;-76
2023/09/22 14:27:27;;;;;;;3.80;1.30;;;;;;;;;;103767;1289;545246;-74
2023/09/22 14:31:07;;;;;;;3.20;1.20;;;;;;;;;;103964;1289;544736;-74
2023/09/22 14:34:42;;;;;;;2.80;1.10;;;;;;;;;;104226;1285;545117;-74
2023/09/22 14:38:19;;;;;;;3.10;1.00;;;;;;;;;;103790;1292;544814;-75
2023/09/22 14:41:57;;;;;;;3.90;1.10;;;;;;;;;;103747;1292;545028;-75
2023/09/22 14:45:35;;;;;;;4.80;1.20;;;;;;;;;;103733;1289;544794;-75
2023/09/22 14:49:11;;;;;;;5.20;2.10;;;;;;;;;;103487;1298;544767;-75
2023/09/22 14:52:49;;;;;;;7.60;1.60;;;;;;;;;;103739;1289;544978;-75
2023/09/22 14:56:27;;;;;;;6.80;2.30;;;;;;;;;;103617;1291;545371;-74
2023/09/22 15:00:05;;;;;;;3.20;1.10;;;;;;;;;;103811;1294;545755;-75
2023/09/22 15:03:42;;;;;;;5.20;1.40;;;;;;;;;;103893;1290;544733;-74
2023/09/22 15:07:15;;;;;;;5.10;1.30;;;;;;;;;;103883;1289;545450;-74
2023/09/22 15:10:58;;;;;;;3.70;1.20;;;;;;;;;;103606;1295;545647;-74
2023/09/22 15:14:41;;;;;;;2.90;1.40;;;;;;;;;;103647;1290;547779;-74
2023/09/22 15:18:12;;;;;;;4.20;1.30;;;;;;;;;;103716;1292;544963;-74
2023/09/22 15:21:50;;;;;;;4.30;1.40;;;;;;;;;;104055;1292;544808;-74
2023/09/22 15:25:28;;;;;;;3.30;1.10;;;;;;;;;;104021;1286;545785;-74
2023/09/22 15:29:05;;;;;;;4.40;1.30;;;;;;;;;;103784;1292;545107;-75
2023/09/22 15:32:42;;;;;;;2.90;1.10;;;;;;;;;;103694;1291;544983;-74
2023/09/22 15:36:20;;;;;;;3.30;1.20;;;;;;;;;;103747;1291;544789;-74
2023/09/22 15:39:58;;;;;;;2.50;1.20;;;;;;;;;;103709;1292;544752;-75
2023/09/22 15:43:35;;;;;;;4.00;1.20;;;;;;;;;;103773;1292;545380;-74
2023/09/22 15:47:13;;;;;;;3.00;1.10;;;;;;;;;;103609;1292;544980;-73
2023/09/22 15:50:52;;;;;;;3.40;1.10;;;;;;;;;;103734;1294;545524;-73
2023/09/22 15:54:27;;;;;;;3.60;1.20;;;;;;;;;;103582;1293;544772;-75
2023/09/22 15:58:06;;;;;;;3.20;1.20;;;;;;;;;;103419;1295;545586;-75
2023/09/22 16:01:44;;;;;;;2.60;1.20;;;;;;;;;;103742;1292;544740;-74
2023/09/22 16:05:19;;;;;;;3.00;1.10;;;;;;;;;;103828;1289;544796;-73
2023/09/22 16:08:57;;;;;;;3.00;1.20;;;;;;;;;;103808;1291;545694;-74
2023/09/22 16:12:35;;;;;;;3.10;1.00;;;;;;;;;;103772;1291;545485;-76
2023/09/22 16:16:12;;;;;;;3.70;1.30;;;;;;;;;;103808;1292;545246;-74
2023/09/22 16:19:50;;;;;;;2.40;1.20;;;;;;;;;;103869;1292;544996;-73
2023/09/22 16:23:27;;;;;;;4.00;1.40;;;;;;;;;;103677;1291;544808;-73
2023/09/22 16:27:05;;;;;;;3.70;1.20;;;;;;;;;;104035;1289;545653;-75
2023/09/22 16:30:42;;;;;;;3.80;1.50;;;;;;;;;;103716;1298;544770;-74
2023/09/22 16:34:20;;;;;;;4.20;1.40;;;;;;;;;;103764;1291;545578;-74
2023/09/22 16:37:57;;;;;;;4.60;1.50;;;;;;;;;;103594;1291;544814;-74
2023/09/22 16:41:34;;;;;;;5.70;2.00;;;;;;;;;;103874;1292;545546;-74
2023/09/22 16:45:08;;;;;;;8.90;2.20;;;;;;;;;;103845;1289;545246;-75
2023/09/22 16:48:51;;;;;;;5.60;1.90;;;;;;;;;;103958;1289;544909;-74
2023/09/22 16:52:28;;;;;;;5.50;1.90;;;;;;;;;;103758;1289;544986;-74
2023/09/22 16:56:08;;;;;;;6.20;1.70;;;;;;;;;;103794;1289;544822;-74
2023/09/22 16:59:43;;;;;;;6.00;1.80;;;;;;;;;;104030;1289;544949;-74
2023/09/22 17:03:22;;;;;;;4.80;1.40;;;;;;;;;;103979;1289;545653;-75
2023/09/22 17:07:05;;;;;;;5.90;1.60;;;;;;;;;;103575;1295;545929;-75
2023/09/22 17:10:39;;;;;;;6.70;1.70;;;;;;;;;;103731;1295;544997;-74
2023/09/22 17:14:14;;;;;;;5.40;1.80;;;;;;;;;;104118;1285;545020;-74
2023/09/22 17:17:51;;;;;;;5.80;2.00;;;;;;;;;;103832;1291;544810;-75
2023/09/22 17:21:29;;;;;;;5.70;2.10;;;;;;;;;;103809;1289;544719;-75
2023/09/22 17:25:06;;;;;;;7.50;2.30;;;;;;;;;;103630;1292;544728;-74
2023/09/22 17:28:43;;;;;;;8.80;2.60;;;;;;;;;;103639;1295;545460;-74
2023/09/22 17:32:40;;;;;;;6.40;2.10;;;;;;;;;;103699;1292;547999;-74
2023/09/22 17:35:59;;;;;;;7.70;2.10;;;;;;;;;;103917;1296;544756;-75
2023/09/22 17:39:36;;;;;;;6.40;1.90;;;;;;;;;;103762;1292;544947;-74
2023/09/22 17:43:13;;;;;;;7.10;2.40;;;;;;;;;;104045;1289;545352;-75
2023/09/22 17:46:54;;;;;;;7.60;2.30;;;;;;;;;;103717;1291;545925;-74
2023/09/22 17:50:31;;;;;;;7.90;2.40;;;;;;;;;;103655;1295;545391;-74
2023/09/22 17:54:06;;;;;;;7.20;2.00;;;;;;;;;;103673;1292;544584;-74
2023/09/22 17:57:42;;;;;;;6.80;1.90;;;;;;;;;;103493;1293;545097;-74
2023/09/22 18:01:20;;;;;;;6.90;2.10;;;;;;;;;;103438;1294;544775;-74
2023/09/22 18:05:17;;;;;;;5.00;1.90;;;;;;;;;;103545;1297;547948;-74
2023/09/22 18:08:35;;;;;;;5.00;1.80;;;;;;;;;;103673;1291;546191;-74
2023/09/22 18:12:12;;;;;;;17.30;2.50;;;;;;;;;;103901;1289;545420;-75
2023/09/22 18:15:50;;;;;;;8.30;1.90;;;;;;;;;;103724;1291;544810;-74
2023/09/22 18:19:28;;;;;;;4.90;1.60;;;;;;;;;;104022;1291;546155;-74
2023/09/22 18:23:05;;;;;;;4.40;1.70;;;;;;;;;;103708;1291;544946;-74
2023/09/22 18:26:42;;;;;;;4.10;1.50;;;;;;;;;;104167;1288;545504;-73
2023/09/22 18:30:20;;;;;;;5.20;1.70;;;;;;;;;;104018;1289;544805;-74
2023/09/22 18:33:58;;;;;;;4.20;1.40;;;;;;;;;;103691;1292;545653;-73
2023/09/22 18:37:35;;;;;;;4.50;1.50;;;;;;;;;;103744;1292;545265;-74
2023/09/22 18:41:13;;;;;;;4.60;1.60;;;;;;;;;;104189;1285;544945;-74
2023/09/22 18:44:50;;;;;;;3.20;1.50;;;;;;;;;;103726;1295;545457;-74
2023/09/22 18:48:29;;;;;;;4.60;1.30;;;;;;;;;;103691;1292;545070;-74
2023/09/22 18:52:06;;;;;;;2.90;1.10;;;;;;;;;;103771;1292;545619;-73
2023/09/22 18:55:47;;;;;;;6.00;1.60;;;;;;;;;;103746;1289;545395;-74
2023/09/22 18:59:21;;;;;;;3.10;1.30;;;;;;;;;;103712;1292;545057;-74
2023/09/22 19:03:00;;;;;;;5.80;1.70;;;;;;;;;;103705;1289;544810;-73
2023/09/22 19:06:55;;;;;;;4.60;1.60;;;;;;;;;;103685;1301;547755;-73
2023/09/22 19:10:12;;;;;;;6.00;1.70;;;;;;;;;;104000;1291;544967;-73
2023/09/22 19:13:51;;;;;;;3.70;1.50;;;;;;;;;;103718;1290;545247;-73
2023/09/22 19:17:27;;;;;;;4.40;1.40;;;;;;;;;;103673;1291;545554;-73
2023/09/22 19:21:06;;;;;;;4.00;1.60;;;;;;;;;;103769;1290;544786;-73
2023/09/22 19:24:43;;;;;;;6.00;1.70;;;;;;;;;;104330;1286;544951;-74
2023/09/22 19:28:19;;;;;;;4.50;1.30;;;;;;;;;;103460;1298;544832;-74
2023/09/22 19:31:54;;;;;;;3.90;1.40;;;;;;;;;;103843;1289;545599;-74
2023/09/22 19:35:40;;;;;;;4.00;1.30;;;;;;;;;;103754;1293;544985;-74
2023/09/22 19:39:14;;;;;;;4.80;1.60;;;;;;;;;;103887;1288;544837;-74
2023/09/22 19:42:47;;;;;;;3.70;1.10;;;;;;;;;;103955;1292;545428;-73
2023/09/22 19:46:34;;;;;;;3.60;1.30;;;;;;;;;;103714;1290;545078;-75
2023/09/22 19:50:12;;;;;;;4.70;1.40;;;;;;;;;;103823;1289;544794;-73
2023/09/22 19:53:49;;;;;;;4.90;1.30;;;;;;;;;;103911;1291;545129;-75
2023/09/22 19:57:26;;;;;;;4.10;1.50;;;;;;;;;;103719;1292;545900;-75
2023/09/22 20:01:02;;;;;;;5.10;1.30;;;;;;;;;;103629;1291;545461;-74
2023/09/22 20:04:39;;;;;;;4.30;1.30;;;;;;;;;;103804;1288;545126;-74
2023/09/22 20:08:13;;;;;;;3.40;1.40;;;;;;;;;;104117;1286;544828;-75
2023/09/22 20:11:56;;;;;;;3.50;1.20;;;;;;;;;;103746;1289;545171;-75
2023/09/22 20:15:55;;;;;;;3.80;1.10;;;;;;;;;;103784;1292;548025;-75
2023/09/22 20:19:11;;;;;;;4.00;1.10;;;;;;;;;;103795;1289;545441;-74
2023/09/22 20:22:48;;;;;;;4.10;1.20;;;;;;;;;;103837;1289;545507;-75
2023/09/22 20:26:27;;;;;;;4.60;1.20;;;;;;;;;;103935;1288;546399;-75
2023/09/22 20:30:03;;;;;;;5.40;1.60;;;;;;;;;;103464;1294;545487;-75
2023/09/22 20:33:41;;;;;;;3.40;1.20;;;;;;;;;;103693;1292;544938;-75
2023/09/22 20:37:19;;;;;;;3.30;1.10;;;;;;;;;;103776;1289;545424;-75
2023/09/22 20:40:56;;;;;;;3.70;1.10;;;;;;;;;;103722;1292;544971;-75
2023/09/22 20:44:33;;;;;;;3.90;1.10;;;;;;;;;;103736;1291;545302;-75
2023/09/22 20:48:11;;;;;;;2.70;1.10;;;;;;;;;;104140;1289;544839;-75
2023/09/22 20:51:48;;;;;;;2.80;1.00;;;;;;;;;;103829;1292;544930;-75
2023/09/22 20:55:53;;;;;;;4.40;1.10;;;;;;;;;;103738;1292;548000;-76
2023/09/22 20:59:03;;;;;;;3.30;0.90;;;;;;;;;;104209;1292;544784;-75
2023/09/22 21:02:42;;;;;;;3.50;1.30;;;;;;;;;;103740;1293;544768;-75
2023/09/22 21:06:25;;;;;;;3.00;1.10;;;;;;;;;;103512;1291;547806;-75
2023/09/22 21:09:56;;;;;;;3.60;1.00;;;;;;;;;;103724;1289;544910;-74
2023/09/22 21:13:33;;;;;;;3.70;1.30;;;;;;;;;;103652;1292;544710;-74
2023/09/22 21:17:10;;;;;;;5.00;1.10;;;;;;;;;;103724;1289;545052;-75
2023/09/22 21:20:44;;;;;;;3.20;1.10;;;;;;;;;;103796;1289;544861;-74
2023/09/22 21:24:28;;;;;;;5.20;1.50;;;;;;;;;;103962;1292;544748;-75
2023/09/22 21:28:04;;;;;;;4.20;1.20;;;;;;;;;;103732;1295;545010;-75
2023/09/22 21:31:38;;;;;;;4.30;1.30;;;;;;;;;;103709;1291;544843;-75
2023/09/22 21:35:21;;;;;;;6.20;1.30;;;;;;;;;;103607;1291;546340;-75
2023/09/22 21:38:58;;;;;;;3.20;1.30;;;;;;;;;;103758;1290;544783;-75
2023/09/22 21:42:36;;;;;;;6.60;1.30;;;;;;;;;;103875;1288;544721;-75
2023/09/22 21:46:14;;;;;;;3.60;1.10;;;;;;;;;;104086;1287;545120;-75
2023/09/22 21:49:51;;;;;;;4.50;1.20;;;;;;;;;;104112;1285;546057;-76